sensor_id;sensor_type;location;lat;lon;timestamp;P1;durP1;ratioP1;P2;durP2;ratioP2
12212;SDS011;6169;44.158;22.788;2022-09-24T00:03:39;6.20;;;3.45;;
12212;SDS011;6169;44.158;22.788;2022-09-24T00:08:46;4.32;;;3.95;;
12212;SDS011;6169;44.158;22.788;2022-09-24T00:13:50;3.88;;;3.40;;
12212;SDS011;6169;44.158;22.788;2022-09-24T00:18:53;3.97;;;3.33;;
12212;SDS011;6169;44.158;22.788;2022-09-24T00:23:57;3.55;;;3.22;;
12212;SDS011;6169;44.158;22.788;2022-09-24T00:29:02;4.63;;;3.40;;
12212;SDS011;6169;44.158;22.788;2022-09-24T00:34:04;4.53;;;3.70;;
12212;SDS011;6169;44.158;22.788;2022-09-24T00:39:08;4.25;;;3.60;;
12212;SDS011;6169;44.158;22.788;2022-09-24T00:49:48;4.80;;;3.30;;
12212;SDS011;6169;44.158;22.788;2022-09-24T00:54:53;3.85;;;3.25;;
12212;SDS011;6169;44.158;22.788;2022-09-24T00:59:56;3.28;;;3.08;;
12212;SDS011;6169;44.158;22.788;2022-09-24T01:04:59;4.32;;;3.92;;
12212;SDS011;6169;44.158;22.788;2022-09-24T01:10:03;4.68;;;3.65;;
12212;SDS011;6169;44.158;22.788;2022-09-24T01:15:10;6.95;;;3.75;;
12212;SDS011;6169;44.158;22.788;2022-09-24T01:20:27;5.03;;;3.40;;
12212;SDS011;6169;44.158;22.788;2022-09-24T01:25:50;5.15;;;4.20;;
12212;SDS011;6169;44.158;22.788;2022-09-24T01:31:13;4.38;;;3.88;;
12212;SDS011;6169;44.158;22.788;2022-09-24T01:36:19;4.50;;;3.67;;
12212;SDS011;6169;44.158;22.788;2022-09-24T01:41:23;4.63;;;3.97;;
12212;SDS011;6169;44.158;22.788;2022-09-24T01:46:27;3.95;;;3.35;;
12212;SDS011;6169;44.158;22.788;2022-09-24T01:51:32;8.13;;;3.80;;
12212;SDS011;6169;44.158;22.788;2022-09-24T01:56:44;3.67;;;3.45;;
12212;SDS011;6169;44.158;22.788;2022-09-24T02:01:54;3.83;;;3.45;;
12212;SDS011;6169;44.158;22.788;2022-09-24T02:07:00;4.05;;;3.42;;
12212;SDS011;6169;44.158;22.788;2022-09-24T02:12:06;4.18;;;3.78;;
12212;SDS011;6169;44.158;22.788;2022-09-24T02:17:13;3.80;;;3.30;;
12212;SDS011;6169;44.158;22.788;2022-09-24T02:22:16;5.20;;;3.58;;
12212;SDS011;6169;44.158;22.788;2022-09-24T02:27:18;3.70;;;3.40;;
12212;SDS011;6169;44.158;22.788;2022-09-24T02:32:23;4.10;;;3.67;;
12212;SDS011;6169;44.158;22.788;2022-09-24T02:37:32;5.60;;;3.58;;
12212;SDS011;6169;44.158;22.788;2022-09-24T02:42:36;5.65;;;3.35;;
12212;SDS011;6169;44.158;22.788;2022-09-24T02:47:41;4.47;;;4.05;;
12212;SDS011;6169;44.158;22.788;2022-09-24T02:52:43;5.47;;;3.55;;
12212;SDS011;6169;44.158;22.788;2022-09-24T02:57:45;5.22;;;3.33;;
12212;SDS011;6169;44.158;22.788;2022-09-24T03:02:49;4.97;;;3.50;;
12212;SDS011;6169;44.158;22.788;2022-09-24T03:07:51;5.65;;;4.05;;
12212;SDS011;6169;44.158;22.788;2022-09-24T03:12:54;3.95;;;3.55;;
12212;SDS011;6169;44.158;22.788;2022-09-24T03:17:58;5.40;;;4.35;;
12212;SDS011;6169;44.158;22.788;2022-09-24T03:23:01;4.68;;;3.63;;
12212;SDS011;6169;44.158;22.788;2022-09-24T03:28:03;4.55;;;3.50;;
12212;SDS011;6169;44.158;22.788;2022-09-24T03:33:07;4.97;;;3.72;;
12212;SDS011;6169;44.158;22.788;2022-09-24T03:38:09;4.43;;;3.53;;
12212;SDS011;6169;44.158;22.788;2022-09-24T03:43:13;5.32;;;3.83;;
12212;SDS011;6169;44.158;22.788;2022-09-24T03:48:17;4.25;;;3.38;;
12212;SDS011;6169;44.158;22.788;2022-09-24T03:53:21;4.55;;;3.47;;
12212;SDS011;6169;44.158;22.788;2022-09-24T03:58:24;5.65;;;4.85;;
12212;SDS011;6169;44.158;22.788;2022-09-24T04:03:28;5.13;;;3.20;;
12212;SDS011;6169;44.158;22.788;2022-09-24T04:08:30;7.07;;;4.18;;
12212;SDS011;6169;44.158;22.788;2022-09-24T04:13:33;5.20;;;3.75;;
12212;SDS011;6169;44.158;22.788;2022-09-24T04:18:37;4.93;;;3.72;;
12212;SDS011;6169;44.158;22.788;2022-09-24T04:23:40;5.78;;;4.43;;
12212;SDS011;6169;44.158;22.788;2022-09-24T04:28:42;4.28;;;3.80;;
12212;SDS011;6169;44.158;22.788;2022-09-24T04:33:46;5.57;;;4.68;;
12212;SDS011;6169;44.158;22.788;2022-09-24T04:38:48;6.22;;;5.20;;
12212;SDS011;6169;44.158;22.788;2022-09-24T04:43:51;6.03;;;4.68;;
12212;SDS011;6169;44.158;22.788;2022-09-24T04:48:54;9.38;;;4.72;;
12212;SDS011;6169;44.158;22.788;2022-09-24T04:53:57;5.68;;;5.00;;
12212;SDS011;6169;44.158;22.788;2022-09-24T04:59:02;4.60;;;4.07;;
12212;SDS011;6169;44.158;22.788;2022-09-24T05:04:05;6.00;;;4.22;;
12212;SDS011;6169;44.158;22.788;2022-09-24T05:09:08;4.50;;;4.10;;
12212;SDS011;6169;44.158;22.788;2022-09-24T05:14:10;6.25;;;4.43;;
12212;SDS011;6169;44.158;22.788;2022-09-24T05:19:14;8.80;;;5.40;;
12212;SDS011;6169;44.158;22.788;2022-09-24T05:24:16;6.72;;;4.53;;
12212;SDS011;6169;44.158;22.788;2022-09-24T05:29:19;6.20;;;5.15;;
12212;SDS011;6169;44.158;22.788;2022-09-24T05:34:22;6.20;;;4.85;;
12212;SDS011;6169;44.158;22.788;2022-09-24T05:39:25;6.60;;;4.38;;
12212;SDS011;6169;44.158;22.788;2022-09-24T05:44:27;6.70;;;5.25;;
12212;SDS011;6169;44.158;22.788;2022-09-24T05:49:31;6.60;;;4.07;;
12212;SDS011;6169;44.158;22.788;2022-09-24T05:54:34;6.40;;;5.05;;
12212;SDS011;6169;44.158;22.788;2022-09-24T05:59:36;4.63;;;3.60;;
12212;SDS011;6169;44.158;22.788;2022-09-24T06:04:40;5.18;;;4.00;;
12212;SDS011;6169;44.158;22.788;2022-09-24T06:09:42;4.90;;;4.00;;
12212;SDS011;6169;44.158;22.788;2022-09-24T06:14:47;5.55;;;4.28;;
12212;SDS011;6169;44.158;22.788;2022-09-24T06:19:50;5.82;;;4.57;;
12212;SDS011;6169;44.158;22.788;2022-09-24T06:24:53;3.60;;;3.30;;
12212;SDS011;6169;44.158;22.788;2022-09-24T06:29:55;3.33;;;3.03;;
12212;SDS011;6169;44.158;22.788;2022-09-24T06:34:59;14.30;;;6.18;;
12212;SDS011;6169;44.158;22.788;2022-09-24T06:40:01;6.15;;;3.95;;
12212;SDS011;6169;44.158;22.788;2022-09-24T06:45:05;4.47;;;4.07;;
12212;SDS011;6169;44.158;22.788;2022-09-24T06:50:09;11.57;;;5.50;;
12212;SDS011;6169;44.158;22.788;2022-09-24T06:55:13;4.03;;;3.63;;
12212;SDS011;6169;44.158;22.788;2022-09-24T07:00:16;5.05;;;3.50;;
12212;SDS011;6169;44.158;22.788;2022-09-24T07:05:19;5.75;;;3.20;;
12212;SDS011;6169;44.158;22.788;2022-09-24T07:10:22;3.25;;;2.88;;
12212;SDS011;6169;44.158;22.788;2022-09-24T07:15:25;4.00;;;3.17;;
12212;SDS011;6169;44.158;22.788;2022-09-24T07:20:29;6.53;;;4.13;;
12212;SDS011;6169;44.158;22.788;2022-09-24T07:25:36;5.22;;;3.63;;
12212;SDS011;6169;44.158;22.788;2022-09-24T07:30:39;7.07;;;3.13;;
12212;SDS011;6169;44.158;22.788;2022-09-24T07:35:43;7.30;;;3.60;;
12212;SDS011;6169;44.158;22.788;2022-09-24T07:40:45;6.15;;;4.40;;
12212;SDS011;6169;44.158;22.788;2022-09-24T07:45:48;4.13;;;3.17;;
12212;SDS011;6169;44.158;22.788;2022-09-24T07:50:52;5.10;;;2.85;;
12212;SDS011;6169;44.158;22.788;2022-09-24T07:55:57;3.92;;;2.42;;
12212;SDS011;6169;44.158;22.788;2022-09-24T08:01:00;3.60;;;2.45;;
12212;SDS011;6169;44.158;22.788;2022-09-24T08:06:04;3.72;;;2.65;;
12212;SDS011;6169;44.158;22.788;2022-09-24T08:11:07;1.95;;;1.73;;
12212;SDS011;6169;44.158;22.788;2022-09-24T08:16:11;5.68;;;2.20;;
12212;SDS011;6169;44.158;22.788;2022-09-24T08:21:15;3.20;;;1.83;;
12212;SDS011;6169;44.158;22.788;2022-09-24T08:26:17;3.20;;;2.50;;
12212;SDS011;6169;44.158;22.788;2022-09-24T08:31:20;5.30;;;2.03;;
12212;SDS011;6169;44.158;22.788;2022-09-24T08:36:23;7.10;;;3.40;;
12212;SDS011;6169;44.158;22.788;2022-09-24T08:41:40;6.45;;;1.80;;
12212;SDS011;6169;44.158;22.788;2022-09-24T08:46:50;11.23;;;4.10;;
12212;SDS011;6169;44.158;22.788;2022-09-24T08:52:17;2.03;;;1.73;;
12212;SDS011;6169;44.158;22.788;2022-09-24T08:57:27;2.00;;;1.35;;
12212;SDS011;6169;44.158;22.788;2022-09-24T09:02:32;3.80;;;2.35;;
12212;SDS011;6169;44.158;22.788;2022-09-24T09:07:45;1.38;;;1.10;;
12212;SDS011;6169;44.158;22.788;2022-09-24T09:12:55;3.63;;;2.03;;
12212;SDS011;6169;44.158;22.788;2022-09-24T09:18:09;1.40;;;1.27;;
12212;SDS011;6169;44.158;22.788;2022-09-24T09:23:17;6.95;;;3.72;;
12212;SDS011;6169;44.158;22.788;2022-09-24T09:28:21;4.45;;;2.13;;
12212;SDS011;6169;44.158;22.788;2022-09-24T09:33:29;5.97;;;3.67;;
12212;SDS011;6169;44.158;22.788;2022-09-24T09:38:56;3.65;;;1.48;;
12212;SDS011;6169;44.158;22.788;2022-09-24T09:44:09;2.33;;;1.63;;
12212;SDS011;6169;44.158;22.788;2022-09-24T09:49:15;3.67;;;1.73;;
12212;SDS011;6169;44.158;22.788;2022-09-24T09:54:20;3.30;;;1.55;;
12212;SDS011;6169;44.158;22.788;2022-09-24T09:59:22;14.88;;;9.63;;
12212;SDS011;6169;44.158;22.788;2022-09-24T10:04:33;9.15;;;6.50;;
12212;SDS011;6169;44.158;22.788;2022-09-24T10:09:40;2.75;;;1.48;;
12212;SDS011;6169;44.158;22.788;2022-09-24T10:14:54;1.70;;;1.33;;
12212;SDS011;6169;44.158;22.788;2022-09-24T10:19:59;8.13;;;2.42;;
12212;SDS011;6169;44.158;22.788;2022-09-24T10:25:04;3.10;;;2.47;;
12212;SDS011;6169;44.158;22.788;2022-09-24T10:30:11;2.08;;;1.60;;
12212;SDS011;6169;44.158;22.788;2022-09-24T10:35:34;1.95;;;1.67;;
12212;SDS011;6169;44.158;22.788;2022-09-24T10:40:39;1.42;;;1.00;;
12212;SDS011;6169;44.158;22.788;2022-09-24T10:51:15;6.50;;;5.30;;
12212;SDS011;6169;44.158;22.788;2022-09-24T10:56:30;4.97;;;3.78;;
12212;SDS011;6169;44.158;22.788;2022-09-24T11:01:39;3.55;;;1.95;;
12212;SDS011;6169;44.158;22.788;2022-09-24T11:06:56;1.13;;;1.02;;
12212;SDS011;6169;44.158;22.788;2022-09-24T11:12:22;7.95;;;6.05;;
12212;SDS011;6169;44.158;22.788;2022-09-24T11:17:33;2.67;;;2.15;;
12212;SDS011;6169;44.158;22.788;2022-09-24T11:22:42;1.73;;;1.60;;
12212;SDS011;6169;44.158;22.788;2022-09-24T11:28:08;1.75;;;1.23;;
12212;SDS011;6169;44.158;22.788;2022-09-24T11:33:27;1.65;;;1.48;;
12212;SDS011;6169;44.158;22.788;2022-09-24T11:38:45;3.60;;;2.75;;
12212;SDS011;6169;44.158;22.788;2022-09-24T11:44:01;1.92;;;1.75;;
12212;SDS011;6169;44.158;22.788;2022-09-24T11:49:23;2.05;;;1.77;;
12212;SDS011;6169;44.158;22.788;2022-09-24T11:54:45;2.07;;;1.40;;
12212;SDS011;6169;44.158;22.788;2022-09-24T12:00:01;5.88;;;1.35;;
12212;SDS011;6169;44.158;22.788;2022-09-24T12:05:08;1.70;;;1.55;;
12212;SDS011;6169;44.158;22.788;2022-09-24T12:10:21;1.10;;;1.00;;
12212;SDS011;6169;44.158;22.788;2022-09-24T12:15:32;1.33;;;1.20;;
12212;SDS011;6169;44.158;22.788;2022-09-24T12:20:44;1.50;;;1.40;;
12212;SDS011;6169;44.158;22.788;2022-09-24T12:25:51;2.57;;;2.27;;
12212;SDS011;6169;44.158;22.788;2022-09-24T12:30:55;3.42;;;2.03;;
12212;SDS011;6169;44.158;22.788;2022-09-24T12:36:19;2.20;;;2.00;;
12212;SDS011;6169;44.158;22.788;2022-09-24T12:41:28;3.20;;;2.33;;
12212;SDS011;6169;44.158;22.788;2022-09-24T12:46:34;4.28;;;2.42;;
12212;SDS011;6169;44.158;22.788;2022-09-24T12:51:41;2.38;;;2.17;;
12212;SDS011;6169;44.158;22.788;2022-09-24T12:56:43;3.92;;;2.50;;
12212;SDS011;6169;44.158;22.788;2022-09-24T13:01:47;7.70;;;3.33;;
12212;SDS011;6169;44.158;22.788;2022-09-24T13:06:50;2.58;;;2.10;;
12212;SDS011;6169;44.158;22.788;2022-09-24T13:11:59;3.13;;;2.83;;
12212;SDS011;6169;44.158;22.788;2022-09-24T13:17:05;3.45;;;2.58;;
12212;SDS011;6169;44.158;22.788;2022-09-24T13:22:16;3.75;;;2.33;;
12212;SDS011;6169;44.158;22.788;2022-09-24T13:27:23;5.22;;;2.78;;
12212;SDS011;6169;44.158;22.788;2022-09-24T13:32:41;5.00;;;2.53;;
12212;SDS011;6169;44.158;22.788;2022-09-24T13:37:48;2.92;;;2.42;;
12212;SDS011;6169;44.158;22.788;2022-09-24T13:42:57;3.95;;;2.47;;
12212;SDS011;6169;44.158;22.788;2022-09-24T13:48:14;3.60;;;2.88;;
12212;SDS011;6169;44.158;22.788;2022-09-24T13:53:30;5.22;;;3.05;;
12212;SDS011;6169;44.158;22.788;2022-09-24T13:58:38;4.03;;;2.47;;
12212;SDS011;6169;44.158;22.788;2022-09-24T14:03:50;4.35;;;3.28;;
12212;SDS011;6169;44.158;22.788;2022-09-24T14:08:54;4.85;;;3.65;;
12212;SDS011;6169;44.158;22.788;2022-09-24T14:13:56;5.80;;;3.22;;
12212;SDS011;6169;44.158;22.788;2022-09-24T14:19:03;3.97;;;2.92;;
12212;SDS011;6169;44.158;22.788;2022-09-24T14:24:06;6.63;;;3.30;;
12212;SDS011;6169;44.158;22.788;2022-09-24T14:29:17;5.28;;;2.95;;
12212;SDS011;6169;44.158;22.788;2022-09-24T14:34:26;5.25;;;3.55;;
12212;SDS011;6169;44.158;22.788;2022-09-24T14:39:36;4.20;;;3.08;;
12212;SDS011;6169;44.158;22.788;2022-09-24T14:44:41;3.28;;;2.40;;
12212;SDS011;6169;44.158;22.788;2022-09-24T14:49:48;3.17;;;2.60;;
12212;SDS011;6169;44.158;22.788;2022-09-24T14:54:59;3.88;;;2.70;;
12212;SDS011;6169;44.158;22.788;2022-09-24T15:00:03;2.72;;;2.40;;
12212;SDS011;6169;44.158;22.788;2022-09-24T15:05:23;7.93;;;3.88;;
12212;SDS011;6169;44.158;22.788;2022-09-24T15:10:27;7.88;;;3.08;;
12212;SDS011;6169;44.158;22.788;2022-09-24T15:15:29;5.68;;;2.83;;
12212;SDS011;6169;44.158;22.788;2022-09-24T15:20:33;6.95;;;4.05;;
12212;SDS011;6169;44.158;22.788;2022-09-24T15:25:36;5.43;;;3.58;;
12212;SDS011;6169;44.158;22.788;2022-09-24T15:30:39;4.80;;;2.80;;
12212;SDS011;6169;44.158;22.788;2022-09-24T15:35:43;7.22;;;3.00;;
12212;SDS011;6169;44.158;22.788;2022-09-24T15:40:45;9.32;;;3.90;;
12212;SDS011;6169;44.158;22.788;2022-09-24T15:45:53;8.73;;;4.38;;
12212;SDS011;6169;44.158;22.788;2022-09-24T15:51:00;11.60;;;5.63;;
12212;SDS011;6169;44.158;22.788;2022-09-24T15:56:03;11.23;;;3.85;;
12212;SDS011;6169;44.158;22.788;2022-09-24T16:01:08;10.18;;;3.72;;
12212;SDS011;6169;44.158;22.788;2022-09-24T16:06:15;14.65;;;4.28;;
12212;SDS011;6169;44.158;22.788;2022-09-24T16:11:18;14.90;;;5.38;;
12212;SDS011;6169;44.158;22.788;2022-09-24T16:16:20;10.20;;;5.90;;
12212;SDS011;6169;44.158;22.788;2022-09-24T16:21:24;16.00;;;7.78;;
12212;SDS011;6169;44.158;22.788;2022-09-24T16:26:27;45.85;;;24.75;;
12212;SDS011;6169;44.158;22.788;2022-09-24T16:31:30;39.20;;;16.60;;
12212;SDS011;6169;44.158;22.788;2022-09-24T16:36:34;14.82;;;7.93;;
12212;SDS011;6169;44.158;22.788;2022-09-24T16:41:36;11.02;;;5.25;;
12212;SDS011;6169;44.158;22.788;2022-09-24T16:46:39;7.05;;;3.92;;
12212;SDS011;6169;44.158;22.788;2022-09-24T16:51:43;7.00;;;4.07;;
12212;SDS011;6169;44.158;22.788;2022-09-24T16:56:46;6.57;;;4.10;;
12212;SDS011;6169;44.158;22.788;2022-09-24T17:01:51;12.35;;;8.57;;
12212;SDS011;6169;44.158;22.788;2022-09-24T17:06:55;18.65;;;9.88;;
12212;SDS011;6169;44.158;22.788;2022-09-24T17:11:58;30.33;;;18.20;;
12212;SDS011;6169;44.158;22.788;2022-09-24T17:17:01;30.52;;;15.50;;
12212;SDS011;6169;44.158;22.788;2022-09-24T17:22:04;21.00;;;9.82;;
12212;SDS011;6169;44.158;22.788;2022-09-24T17:27:07;13.68;;;7.68;;
12212;SDS011;6169;44.158;22.788;2022-09-24T17:32:10;19.98;;;9.27;;
12212;SDS011;6169;44.158;22.788;2022-09-24T17:37:14;18.00;;;10.80;;
12212;SDS011;6169;44.158;22.788;2022-09-24T17:42:18;22.17;;;11.05;;
12212;SDS011;6169;44.158;22.788;2022-09-24T17:47:20;18.88;;;8.75;;
12212;SDS011;6169;44.158;22.788;2022-09-24T17:52:24;19.25;;;9.25;;
12212;SDS011;6169;44.158;22.788;2022-09-24T17:57:27;15.38;;;9.02;;
12212;SDS011;6169;44.158;22.788;2022-09-24T18:02:30;14.82;;;7.40;;
12212;SDS011;6169;44.158;22.788;2022-09-24T18:07:34;11.95;;;7.13;;
12212;SDS011;6169;44.158;22.788;2022-09-24T18:12:36;10.40;;;7.30;;
12212;SDS011;6169;44.158;22.788;2022-09-24T18:17:38;14.00;;;7.57;;
12212;SDS011;6169;44.158;22.788;2022-09-24T18:22:42;14.00;;;7.70;;
12212;SDS011;6169;44.158;22.788;2022-09-24T18:27:45;19.02;;;5.60;;
12212;SDS011;6169;44.158;22.788;2022-09-24T18:32:47;22.77;;;9.73;;
12212;SDS011;6169;44.158;22.788;2022-09-24T18:37:51;16.50;;;9.80;;
12212;SDS011;6169;44.158;22.788;2022-09-24T18:42:54;19.13;;;8.68;;
12212;SDS011;6169;44.158;22.788;2022-09-24T18:47:57;16.02;;;10.05;;
12212;SDS011;6169;44.158;22.788;2022-09-24T18:53:01;17.95;;;12.13;;
12212;SDS011;6169;44.158;22.788;2022-09-24T18:58:04;19.17;;;10.95;;
12212;SDS011;6169;44.158;22.788;2022-09-24T19:03:06;15.95;;;9.73;;
12212;SDS011;6169;44.158;22.788;2022-09-24T19:08:11;15.60;;;8.43;;
12212;SDS011;6169;44.158;22.788;2022-09-24T19:13:14;14.35;;;9.48;;
12212;SDS011;6169;44.158;22.788;2022-09-24T19:18:16;13.23;;;8.52;;
12212;SDS011;6169;44.158;22.788;2022-09-24T19:23:21;10.73;;;8.88;;
12212;SDS011;6169;44.158;22.788;2022-09-24T19:28:23;17.90;;;9.25;;
12212;SDS011;6169;44.158;22.788;2022-09-24T19:33:27;14.60;;;9.27;;
12212;SDS011;6169;44.158;22.788;2022-09-24T19:38:32;12.13;;;7.75;;
12212;SDS011;6169;44.158;22.788;2022-09-24T19:43:36;13.73;;;8.02;;
12212;SDS011;6169;44.158;22.788;2022-09-24T19:48:39;13.57;;;8.40;;
12212;SDS011;6169;44.158;22.788;2022-09-24T19:53:47;20.23;;;8.30;;
12212;SDS011;6169;44.158;22.788;2022-09-24T19:58:50;12.43;;;8.55;;
12212;SDS011;6169;44.158;22.788;2022-09-24T20:03:54;14.05;;;7.85;;
12212;SDS011;6169;44.158;22.788;2022-09-24T20:08:58;18.08;;;8.15;;
12212;SDS011;6169;44.158;22.788;2022-09-24T20:14:02;16.88;;;8.48;;
12212;SDS011;6169;44.158;22.788;2022-09-24T20:19:09;19.40;;;10.80;;
12212;SDS011;6169;44.158;22.788;2022-09-24T20:24:14;14.80;;;10.60;;
12212;SDS011;6169;44.158;22.788;2022-09-24T20:29:16;22.15;;;12.85;;
12212;SDS011;6169;44.158;22.788;2022-09-24T20:34:22;24.00;;;13.25;;
12212;SDS011;6169;44.158;22.788;2022-09-24T20:39:29;12.10;;;8.63;;
12212;SDS011;6169;44.158;22.788;2022-09-24T20:44:32;11.05;;;7.50;;
12212;SDS011;6169;44.158;22.788;2022-09-24T20:49:34;13.00;;;7.18;;
12212;SDS011;6169;44.158;22.788;2022-09-24T20:54:38;14.73;;;6.88;;
12212;SDS011;6169;44.158;22.788;2022-09-24T20:59:40;9.82;;;7.40;;
12212;SDS011;6169;44.158;22.788;2022-09-24T21:04:43;12.20;;;8.52;;
12212;SDS011;6169;44.158;22.788;2022-09-24T21:09:46;9.85;;;7.30;;
12212;SDS011;6169;44.158;22.788;2022-09-24T21:14:49;8.02;;;6.82;;
12212;SDS011;6169;44.158;22.788;2022-09-24T21:19:52;12.57;;;6.78;;
12212;SDS011;6169;44.158;22.788;2022-09-24T21:24:56;12.60;;;7.65;;
12212;SDS011;6169;44.158;22.788;2022-09-24T21:29:58;15.00;;;8.73;;
12212;SDS011;6169;44.158;22.788;2022-09-24T21:35:01;12.88;;;6.38;;
12212;SDS011;6169;44.158;22.788;2022-09-24T21:40:05;8.52;;;6.43;;
12212;SDS011;6169;44.158;22.788;2022-09-24T21:45:09;10.07;;;6.03;;
12212;SDS011;6169;44.158;22.788;2022-09-24T21:50:12;9.40;;;4.72;;
12212;SDS011;6169;44.158;22.788;2022-09-24T21:55:16;12.60;;;6.70;;
12212;SDS011;6169;44.158;22.788;2022-09-24T22:00:19;8.05;;;5.93;;
12212;SDS011;6169;44.158;22.788;2022-09-24T22:05:23;9.48;;;5.50;;
12212;SDS011;6169;44.158;22.788;2022-09-24T22:10:27;11.63;;;7.32;;
12212;SDS011;6169;44.158;22.788;2022-09-24T22:15:30;8.95;;;6.45;;
12212;SDS011;6169;44.158;22.788;2022-09-24T22:20:33;7.35;;;5.90;;
12212;SDS011;6169;44.158;22.788;2022-09-24T22:25:37;15.07;;;6.32;;
12212;SDS011;6169;44.158;22.788;2022-09-24T22:30:42;9.70;;;5.55;;
12212;SDS011;6169;44.158;22.788;2022-09-24T22:35:45;9.55;;;5.82;;
12212;SDS011;6169;44.158;22.788;2022-09-24T22:40:51;8.70;;;5.13;;
12212;SDS011;6169;44.158;22.788;2022-09-24T22:45:55;8.13;;;5.28;;
12212;SDS011;6169;44.158;22.788;2022-09-24T22:50:58;11.75;;;6.28;;
12212;SDS011;6169;44.158;22.788;2022-09-24T22:56:03;10.45;;;6.80;;
12212;SDS011;6169;44.158;22.788;2022-09-24T23:01:07;9.63;;;6.35;;
12212;SDS011;6169;44.158;22.788;2022-09-24T23:06:11;10.30;;;7.13;;
12212;SDS011;6169;44.158;22.788;2022-09-24T23:11:15;11.18;;;6.95;;
12212;SDS011;6169;44.158;22.788;2022-09-24T23:16:20;10.07;;;6.90;;
12212;SDS011;6169;44.158;22.788;2022-09-24T23:21:25;13.70;;;7.97;;
12212;SDS011;6169;44.158;22.788;2022-09-24T23:26:32;11.48;;;7.75;;
12212;SDS011;6169;44.158;22.788;2022-09-24T23:31:34;13.02;;;9.38;;
12212;SDS011;6169;44.158;22.788;2022-09-24T23:36:37;34.50;;;19.27;;
12212;SDS011;6169;44.158;22.788;2022-09-24T23:41:41;17.50;;;10.40;;
12212;SDS011;6169;44.158;22.788;2022-09-24T23:46:43;15.75;;;9.02;;
12212;SDS011;6169;44.158;22.788;2022-09-24T23:51:46;11.15;;;7.85;;
12212;SDS011;6169;44.158;22.788;2022-09-24T23:56:50;10.25;;;7.47;;
